Barkald — V7IM6 — position and weather

sailwx.info

Track history (hours):
 
Tides and Currents Weather Stations Pressure Air Temp Water Temp Dewpoint Dewpoint Depression Visibility Wind Speed Wind Dir Waves Ship Positions

Barkald

Last reported at 2015-Mar-27 04:19 UTC. Time now 2015-Mar-31 09:47 UTC.
Position N 41°07' W 068°56'.

Length 189 m; draft 6.1 m.

MMSI: 538002409.

Date/timePositionNaut miles runAvg speedWind from/ knotsBaromVisibWave heightAir tempDewpointWater temp
2015-Mar-27 04:19N 41°07' W 068°56'54 8.7
2015-Mar-26 22:08N 40°25' W 069°40'711.0
2015-Mar-26 21:31N 40°23' W 069°48'13 9.3
2015-Mar-26 20:07N 40°25' W 070°05'1110.8
2015-Mar-26 19:06N 40°25' W 070°20'3510.0
2015-Mar-26 15:33N 40°41' W 071°01'10 9.6
2015-Mar-26 14:34N 40°49' W 071°09'9 8.8
2015-Mar-26 13:33N 40°56' W 071°15'9 9.0
2015-Mar-26 12:33N 41°03' W 071°22'9 9.5
2015-Mar-26 11:34N 41°12' W 071°29'8 7.8
2015-Mar-26 10:33N 41°18' W 071°34'1413.6
2015-Mar-26 09:33N 41°16' W 071°52'1414.3
2015-Mar-26 08:34N 41°13' W 072°10'1413.6
2015-Mar-26 07:33N 41°09' W 072°27'1313.4
2015-Mar-26 06:34N 41°07' W 072°45'1313.4
2015-Mar-26 05:33N 41°05' W 073°03'9 8.4
2015-Mar-26 04:29N 41°04' W 073°15'0 0.0
2015-Mar-26 03:29N 41°04' W 073°15'0 0.1
2015-Mar-26 02:32N 41°04' W 073°15'0 0.1
2015-Mar-26 01:32N 41°04' W 073°15'0 0.1
2015-Mar-26 00:32N 41°04' W 073°15'0 0.1
2015-Mar-25 23:32N 41°04' W 073°15'0 0.0
2015-Mar-25 22:32N 41°04' W 073°15'0 0.0
2015-Mar-25 21:11N 41°04' W 073°15'0 0.0
2015-Mar-25 20:20N 41°04' W 073°15'0 0.0
2015-Mar-25 19:32N 41°04' W 073°15'0 0.1
2015-Mar-25 18:29N 41°04' W 073°15'0 0.0
2015-Mar-25 17:32N 41°04' W 073°15'0 0.0
2015-Mar-25 16:32N 41°04' W 073°15'0 0.0
2015-Mar-25 15:32N 41°04' W 073°15'0 0.2
2015-Mar-25 14:32N 41°04' W 073°15'0 0.1
2015-Mar-25 13:32N 41°04' W 073°15'0 0.0
2015-Mar-25 12:32N 41°04' W 073°15'0 0.0
2015-Mar-25 11:32N 41°04' W 073°15'0 0.0
2015-Mar-25 10:32N 41°04' W 073°15'0 0.0
2015-Mar-25 09:32N 41°04' W 073°15'0 0.1
2015-Mar-25 08:32N 41°04' W 073°15'0 0.0
2015-Mar-25 07:32N 41°04' W 073°15'0 0.0
2015-Mar-25 06:32N 41°04' W 073°15'0 0.1
2015-Mar-25 05:32N 41°04' W 073°15'0 0.0
2015-Mar-25 04:32N 41°04' W 073°15'0 0.0
2015-Mar-25 03:32N 41°04' W 073°15'0 0.1
2015-Mar-25 02:32N 41°04' W 073°15'0 0.0
2015-Mar-25 01:32N 41°04' W 073°15'0 0.1
2015-Mar-25 00:32N 41°04' W 073°15'0 0.0
2015-Mar-24 23:32N 41°04' W 073°15'0 0.0
2015-Mar-24 22:32N 41°04' W 073°15'0 0.0
2015-Mar-24 21:32N 41°04' W 073°15'0 0.0
2015-Mar-24 20:32N 41°04' W 073°15'0 0.1
2015-Mar-24 19:32N 41°04' W 073°15'0 0.0
2015-Mar-24 18:32N 41°04' W 073°15'0 0.1
2015-Mar-24 17:32N 41°04' W 073°15'0 0.0
2015-Mar-24 16:32N 41°04' W 073°15'0 0.0
2015-Mar-24 15:32N 41°04' W 073°15'0 0.1
2015-Mar-24 14:32N 41°04' W 073°15'0 0.1
2015-Mar-24 13:29N 41°04' W 073°15'0 0.1
2015-Mar-24 12:32N 41°04' W 073°15'0 0.0
2015-Mar-24 11:32N 41°04' W 073°15'0 0.0
2015-Mar-24 10:32N 41°04' W 073°15'0 0.0
2015-Mar-24 09:32N 41°04' W 073°15'0 0.0
2015-Mar-24 08:32N 41°04' W 073°15'0 0.1
2015-Mar-24 07:32N 41°04' W 073°15'0 0.0
2015-Mar-24 06:32N 41°04' W 073°15'0 0.0
2015-Mar-24 05:32N 41°04' W 073°15'0 0.0
2015-Mar-24 04:29N 41°04' W 073°15'0 0.0
2015-Mar-24 03:32N 41°04' W 073°15'0 0.0
2015-Mar-24 02:32N 41°04' W 073°15'0 0.0
2015-Mar-24 01:32N 41°04' W 073°15'0 0.1
2015-Mar-24 00:32N 41°04' W 073°15'0 0.0
2015-Mar-23 23:32N 41°04' W 073°15'0 0.1
2015-Mar-23 22:32N 41°04' W 073°14'0 0.0
2015-Mar-23 21:32N 41°04' W 073°14'0 0.0
2015-Mar-23 20:32N 41°04' W 073°14'0 0.0
2015-Mar-23 19:29N 41°04' W 073°14'0 0.0
2015-Mar-23 18:29N 41°04' W 073°14'0 0.1
2015-Mar-23 17:26N 41°04' W 073°15'0 0.1
2015-Mar-23 16:29N 41°04' W 073°15'0 0.0
2015-Mar-23 15:32N 41°04' W 073°15'0 0.1
2015-Mar-23 14:32N 41°04' W 073°15'0 0.0
2015-Mar-23 13:32N 41°04' W 073°15'0 0.0
2015-Mar-23 12:32N 41°04' W 073°15'0 0.0
2015-Mar-23 11:32N 41°04' W 073°15'0 0.0
2015-Mar-23 10:32N 41°04' W 073°15'0 0.0
2015-Mar-23 09:32N 41°04' W 073°15'0 0.0
2015-Mar-23 08:32N 41°04' W 073°15'0 0.0
2015-Mar-23 07:32N 41°04' W 073°15'0 0.0
2015-Mar-23 06:32N 41°04' W 073°15'0 0.1
2015-Mar-23 05:29N 41°04' W 073°15'0 0.0
2015-Mar-23 04:29N 41°04' W 073°15'0 0.0
2015-Mar-23 03:32N 41°04' W 073°15'0 0.0
2015-Mar-23 02:32N 41°04' W 073°15'0 0.0
2015-Mar-23 01:32N 41°04' W 073°15'0 0.1
2015-Mar-23 00:32N 41°04' W 073°15'0 0.0
2015-Mar-22 23:29N 41°04' W 073°15'0 0.0
2015-Mar-22 22:32N 41°04' W 073°14'0 0.0
2015-Mar-22 21:32N 41°04' W 073°14'0 0.0
2015-Mar-22 20:32N 41°04' W 073°14'0 0.0
2015-Mar-22 19:32N 41°04' W 073°14'0 0.0
2015-Mar-22 18:32N 41°04' W 073°14'0 0.1
2015-Mar-22 17:32N 41°04' W 073°15'0 0.1
2015-Mar-22 16:32N 41°04' W 073°15'0 0.1
2015-Mar-22 15:32N 41°04' W 073°15'0 0.0
2015-Mar-22 14:32N 41°04' W 073°15'0 0.0
2015-Mar-22 13:32N 41°04' W 073°15'0 0.1
2015-Mar-22 12:32N 41°04' W 073°15'0 0.1
2015-Mar-22 11:32N 41°04' W 073°15'0 0.0
2015-Mar-22 10:32N 41°04' W 073°14'0 0.0
2015-Mar-22 09:32N 41°04' W 073°14'0 0.0
2015-Mar-22 08:32N 41°04' W 073°14'0 0.0
2015-Mar-22 07:32N 41°04' W 073°14'0 0.0
2015-Mar-22 06:32N 41°04' W 073°14'0 0.0
2015-Mar-22 05:32N 41°04' W 073°14'0 0.0
2015-Mar-22 04:32N 41°04' W 073°14'0 0.1
2015-Mar-22 03:32N 41°04' W 073°14'0 0.1
2015-Mar-22 02:29N 41°04' W 073°15'0 0.1
2015-Mar-22 01:32N 41°04' W 073°15'0 0.0
2015-Mar-22 00:32N 41°04' W 073°15'0 0.0
2015-Mar-21 23:32N 41°04' W 073°15'0 0.0
2015-Mar-21 22:32N 41°04' W 073°14'0 0.0
2015-Mar-21 21:32N 41°04' W 073°14'0 0.0
2015-Mar-21 20:32N 41°04' W 073°14'0 0.0
2015-Mar-21 19:32N 41°04' W 073°15'0 0.0
2015-Mar-21 18:32N 41°04' W 073°15'0 0.1
2015-Mar-21 17:32N 41°04' W 073°15'0 0.1
2015-Mar-21 16:32N 41°04' W 073°15'0 0.0
2015-Mar-21 15:32N 41°04' W 073°15'0 0.1
2015-Mar-21 14:29N 41°04' W 073°15'0 0.0
2015-Mar-21 13:32N 41°04' W 073°15'0 0.0
2015-Mar-21 12:32N 41°04' W 073°15'0 0.1
2015-Mar-21 11:32N 41°04' W 073°15'0 0.1
2015-Mar-21 10:32N 41°04' W 073°15'0 0.0
2015-Mar-21 09:32N 41°04' W 073°15'0 0.0
2015-Mar-21 08:32N 41°04' W 073°15'0 0.0
2015-Mar-21 07:32N 41°04' W 073°15'0 0.1
2015-Mar-21 06:32N 41°04' W 073°15'0 0.1
2015-Mar-21 05:32N 41°04' W 073°15'0 0.0
2015-Mar-21 04:32N 41°04' W 073°15'0 0.0
2015-Mar-21 03:32N 41°04' W 073°15'0 0.0
2015-Mar-21 02:32N 41°04' W 073°15'0 0.0
2015-Mar-21 01:32N 41°04' W 073°15'0 0.0
2015-Mar-21 00:32N 41°04' W 073°15'0 0.0
2015-Mar-20 23:32N 41°04' W 073°15'0 0.0
2015-Mar-20 22:32N 41°04' W 073°15'0 0.0
2015-Mar-20 21:32N 41°04' W 073°15'0 0.1
2015-Mar-20 20:32N 41°04' W 073°15'0 0.1
2015-Mar-20 19:32N 41°04' W 073°15'0 0.0
2015-Mar-20 18:32N 41°04' W 073°15'0 0.1
2015-Mar-20 17:32N 41°04' W 073°15'0 0.0
2015-Mar-20 16:32N 41°04' W 073°15'0 0.0
2015-Mar-20 15:32N 41°04' W 073°15'0 0.0
2015-Mar-20 14:32N 41°04' W 073°15'0 0.0
2015-Mar-20 13:32N 41°04' W 073°15'0 0.0
2015-Mar-20 12:29N 41°04' W 073°15'0 0.0
2015-Mar-20 11:32N 41°04' W 073°15'0 0.1
2015-Mar-20 10:32N 41°04' W 073°15'0 0.1
2015-Mar-20 09:32N 41°04' W 073°15'0 0.0
2015-Mar-20 08:32N 41°04' W 073°15'0 0.0
2015-Mar-20 07:32N 41°04' W 073°15'0 0.0
2015-Mar-20 06:32N 41°04' W 073°15'0 0.0
2015-Mar-20 05:32N 41°04' W 073°15'0 0.1
2015-Mar-20 04:32N 41°04' W 073°15'0 0.1
2015-Mar-20 03:32N 41°04' W 073°15'0 0.1
2015-Mar-20 02:32N 41°04' W 073°15'0 0.0
2015-Mar-20 01:32N 41°04' W 073°15'0 0.0
2015-Mar-20 00:32N 41°04' W 073°15'0 0.0
2015-Mar-19 23:32N 41°04' W 073°15'0 0.1
2015-Mar-19 22:32N 41°04' W 073°15'0 0.1
2015-Mar-19 21:32N 41°04' W 073°15'0 0.0
2015-Mar-19 20:29N 41°04' W 073°14'0 0.0
2015-Mar-19 19:26N 41°04' W 073°14'0 0.0
2015-Mar-19 18:32N 41°04' W 073°14'0 0.0
2015-Mar-19 17:29N 41°04' W 073°14'0 0.0
2015-Mar-19 16:23N 41°04' W 073°15'0 0.0
2015-Mar-19 15:32N 41°04' W 073°15'0 0.1
2015-Mar-19 14:32N 41°04' W 073°15'0 0.1
2015-Mar-19 13:32N 41°04' W 073°15'0 0.0
2015-Mar-19 12:32N 41°04' W 073°15'0 0.0
2015-Mar-19 11:32N 41°04' W 073°15'0 0.0
2015-Mar-19 10:32N 41°04' W 073°15'0 0.2
2015-Mar-19 09:32N 41°04' W 073°15'0 0.1
2015-Mar-19 08:32N 41°04' W 073°15'0 0.0
2015-Mar-19 07:32N 41°04' W 073°15'0 0.0
2015-Mar-19 06:32N 41°04' W 073°15'0 0.0
2015-Mar-19 05:32N 41°04' W 073°15'0 0.0
2015-Mar-19 04:32N 41°04' W 073°15'0 0.0
2015-Mar-19 03:32N 41°04' W 073°14'0 0.0
2015-Mar-19 02:29N 41°04' W 073°15'0 0.0
2015-Mar-19 01:32N 41°04' W 073°15'0 0.0
2015-Mar-19 00:32N 41°04' W 073°15'0 0.0
2015-Mar-18 23:32N 41°04' W 073°15'0 0.1
2015-Mar-18 22:33N 41°04' W 073°15'1 0.9
2015-Mar-18 21:32N 41°03' W 073°14'0 0.2
2015-Mar-18 20:19N 41°04' W 073°14'0 0.0
2015-Mar-18 19:31N 41°04' W 073°14'0 0.0
2015-Mar-18 18:28N 41°04' W 073°14'0 0.0
2015-Mar-18 17:31N 41°04' W 073°14'0 0.0
2015-Mar-18 16:28N 41°04' W 073°14'0 0.1
2015-Mar-18 15:19N 41°04' W 073°14'0 0.0
2015-Mar-18 14:28N 41°04' W 073°14'0 0.0
2015-Mar-18 13:31N 41°04' W 073°14'0 0.0
2015-Mar-18 12:31N 41°04' W 073°14'0 0.0
2015-Mar-18 11:31N 41°04' W 073°14'0 0.0
2015-Mar-18 10:31N 41°04' W 073°14'0 0.0
2015-Mar-18 09:28N 41°04' W 073°14'0 0.0
2015-Mar-18 08:28N 41°04' W 073°14'0 0.1
2015-Mar-18 07:25N 41°04' W 073°14'0 0.0
2015-Mar-18 06:28N 41°04' W 073°14'0 0.0
2015-Mar-18 05:22N 41°04' W 073°14'0 0.0
2015-Mar-18 04:31N 41°04' W 073°14'0 0.0
2015-Mar-18 03:31N 41°04' W 073°14'0 0.1
2015-Mar-18 02:28N 41°04' W 073°14'0 0.0
2015-Mar-18 01:31N 41°04' W 073°14'0 0.0
2015-Mar-18 00:31N 41°04' W 073°14'0 0.0
2015-Mar-17 23:25N 41°04' W 073°14'0 0.0
2015-Mar-17 22:31N 41°04' W 073°14'1 1.2
2015-Mar-17 21:28N 41°03' W 073°13'0 0.5
2015-Mar-17 20:31N 41°03' W 073°13'0 0.0
2015-Mar-17 19:31N 41°03' W 073°13'0 0.0
2015-Mar-17 18:31N 41°03' W 073°13'0 0.0
2015-Mar-17 17:28N 41°03' W 073°13'0 0.0
2015-Mar-17 16:31N 41°03' W 073°13'0 0.0
2015-Mar-17 15:31N 41°03' W 073°13'0 0.2
2015-Mar-17 14:31N 41°03' W 073°13'0 0.0
2015-Mar-17 13:31N 41°03' W 073°13'0 0.1
2015-Mar-17 12:31N 41°03' W 073°13'0 0.0
2015-Mar-17 11:31N 41°03' W 073°13'0 0.0
2015-Mar-17 10:31N 41°03' W 073°13'0 0.0
2015-Mar-17 09:31N 41°03' W 073°13'0 0.1
2015-Mar-17 08:31N 41°03' W 073°13'0 0.2
2015-Mar-17 07:31N 41°03' W 073°13'0 0.1
2015-Mar-17 06:31N 41°03' W 073°13'0 0.0
2015-Mar-17 05:28N 41°03' W 073°13'0 0.0
2015-Mar-17 04:31N 41°03' W 073°13'  
Track history (hours):
 
Tides and Currents Weather Stations Pressure Air Temp Water Temp Dewpoint Dewpoint Depression Visibility Wind Speed Wind Dir Waves Ship Positions

Barkald

Last reported at 2015-Mar-27 04:19 UTC. Time now 2015-Mar-31 09:47 UTC.
Position N 41°07' W 068°56'.

Length 189 m; draft 6.1 m.

MMSI: 538002409.

Date/timePositionNaut miles runAvg speedWind from/ knotsBaromVisibWave heightAir tempDewpointWater temp
2015-Mar-27 04:19N 41°07' W 068°56'54 8.7
2015-Mar-26 22:08N 40°25' W 069°40'711.0
2015-Mar-26 21:31N 40°23' W 069°48'13 9.3
2015-Mar-26 20:07N 40°25' W 070°05'1110.8
2015-Mar-26 19:06N 40°25' W 070°20'3510.0
2015-Mar-26 15:33N 40°41' W 071°01'10 9.6
2015-Mar-26 14:34N 40°49' W 071°09'9 8.8
2015-Mar-26 13:33N 40°56' W 071°15'9 9.0
2015-Mar-26 12:33N 41°03' W 071°22'9 9.5
2015-Mar-26 11:34N 41°12' W 071°29'8 7.8
2015-Mar-26 10:33N 41°18' W 071°34'1413.6
2015-Mar-26 09:33N 41°16' W 071°52'1414.3
2015-Mar-26 08:34N 41°13' W 072°10'1413.6
2015-Mar-26 07:33N 41°09' W 072°27'1313.4
2015-Mar-26 06:34N 41°07' W 072°45'1313.4
2015-Mar-26 05:33N 41°05' W 073°03'9 8.4
2015-Mar-26 04:29N 41°04' W 073°15'0 0.0
2015-Mar-26 03:29N 41°04' W 073°15'0 0.1
2015-Mar-26 02:32N 41°04' W 073°15'0 0.1
2015-Mar-26 01:32N 41°04' W 073°15'0 0.1
2015-Mar-26 00:32N 41°04' W 073°15'0 0.1
2015-Mar-25 23:32N 41°04' W 073°15'0 0.0
2015-Mar-25 22:32N 41°04' W 073°15'0 0.0
2015-Mar-25 21:11N 41°04' W 073°15'0 0.0
2015-Mar-25 20:20N 41°04' W 073°15'0 0.0
2015-Mar-25 19:32N 41°04' W 073°15'0 0.1
2015-Mar-25 18:29N 41°04' W 073°15'0 0.0
2015-Mar-25 17:32N 41°04' W 073°15'0 0.0
2015-Mar-25 16:32N 41°04' W 073°15'0 0.0
2015-Mar-25 15:32N 41°04' W 073°15'0 0.2
2015-Mar-25 14:32N 41°04' W 073°15'0 0.1
2015-Mar-25 13:32N 41°04' W 073°15'0 0.0
2015-Mar-25 12:32N 41°04' W 073°15'0 0.0
2015-Mar-25 11:32N 41°04' W 073°15'0 0.0
2015-Mar-25 10:32N 41°04' W 073°15'0 0.0
2015-Mar-25 09:32N 41°04' W 073°15'0 0.1
2015-Mar-25 08:32N 41°04' W 073°15'0 0.0
2015-Mar-25 07:32N 41°04' W 073°15'0 0.0
2015-Mar-25 06:32N 41°04' W 073°15'0 0.1
2015-Mar-25 05:32N 41°04' W 073°15'0 0.0
2015-Mar-25 04:32N 41°04' W 073°15'0 0.0
2015-Mar-25 03:32N 41°04' W 073°15'0 0.1
2015-Mar-25 02:32N 41°04' W 073°15'0 0.0
2015-Mar-25 01:32N 41°04' W 073°15'0 0.1
2015-Mar-25 00:32N 41°04' W 073°15'0 0.0
2015-Mar-24 23:32N 41°04' W 073°15'0 0.0
2015-Mar-24 22:32N 41°04' W 073°15'0 0.0
2015-Mar-24 21:32N 41°04' W 073°15'0 0.0
2015-Mar-24 20:32N 41°04' W 073°15'0 0.1
2015-Mar-24 19:32N 41°04' W 073°15'0 0.0
2015-Mar-24 18:32N 41°04' W 073°15'0 0.1
2015-Mar-24 17:32N 41°04' W 073°15'0 0.0
2015-Mar-24 16:32N 41°04' W 073°15'0 0.0
2015-Mar-24 15:32N 41°04' W 073°15'0 0.1
2015-Mar-24 14:32N 41°04' W 073°15'0 0.1
2015-Mar-24 13:29N 41°04' W 073°15'0 0.1
2015-Mar-24 12:32N 41°04' W 073°15'0 0.0
2015-Mar-24 11:32N 41°04' W 073°15'0 0.0
2015-Mar-24 10:32N 41°04' W 073°15'0 0.0
2015-Mar-24 09:32N 41°04' W 073°15'0 0.0
2015-Mar-24 08:32N 41°04' W 073°15'0 0.1
2015-Mar-24 07:32N 41°04' W 073°15'0 0.0
2015-Mar-24 06:32N 41°04' W 073°15'0 0.0
2015-Mar-24 05:32N 41°04' W 073°15'0 0.0
2015-Mar-24 04:29N 41°04' W 073°15'0 0.0
2015-Mar-24 03:32N 41°04' W 073°15'0 0.0
2015-Mar-24 02:32N 41°04' W 073°15'0 0.0
2015-Mar-24 01:32N 41°04' W 073°15'0 0.1
2015-Mar-24 00:32N 41°04' W 073°15'0 0.0
2015-Mar-23 23:32N 41°04' W 073°15'0 0.1
2015-Mar-23 22:32N 41°04' W 073°14'0 0.0
2015-Mar-23 21:32N 41°04' W 073°14'0 0.0
2015-Mar-23 20:32N 41°04' W 073°14'0 0.0
2015-Mar-23 19:29N 41°04' W 073°14'0 0.0
2015-Mar-23 18:29N 41°04' W 073°14'0 0.1
2015-Mar-23 17:26N 41°04' W 073°15'0 0.1
2015-Mar-23 16:29N 41°04' W 073°15'0 0.0
2015-Mar-23 15:32N 41°04' W 073°15'0 0.1
2015-Mar-23 14:32N 41°04' W 073°15'0 0.0
2015-Mar-23 13:32N 41°04' W 073°15'0 0.0
2015-Mar-23 12:32N 41°04' W 073°15'0 0.0
2015-Mar-23 11:32N 41°04' W 073°15'0 0.0
2015-Mar-23 10:32N 41°04' W 073°15'0 0.0
2015-Mar-23 09:32N 41°04' W 073°15'0 0.0
2015-Mar-23 08:32N 41°04' W 073°15'0 0.0
2015-Mar-23 07:32N 41°04' W 073°15'0 0.0
2015-Mar-23 06:32N 41°04' W 073°15'0 0.1
2015-Mar-23 05:29N 41°04' W 073°15'0 0.0
2015-Mar-23 04:29N 41°04' W 073°15'0 0.0
2015-Mar-23 03:32N 41°04' W 073°15'0 0.0
2015-Mar-23 02:32N 41°04' W 073°15'0 0.0
2015-Mar-23 01:32N 41°04' W 073°15'0 0.1
2015-Mar-23 00:32N 41°04' W 073°15'0 0.0
2015-Mar-22 23:29N 41°04' W 073°15'0 0.0
2015-Mar-22 22:32N 41°04' W 073°14'0 0.0
2015-Mar-22 21:32N 41°04' W 073°14'0 0.0
2015-Mar-22 20:32N 41°04' W 073°14'0 0.0
2015-Mar-22 19:32N 41°04' W 073°14'0 0.0
2015-Mar-22 18:32N 41°04' W 073°14'0 0.1
2015-Mar-22 17:32N 41°04' W 073°15'0 0.1
2015-Mar-22 16:32N 41°04' W 073°15'0 0.1
2015-Mar-22 15:32N 41°04' W 073°15'0 0.0
2015-Mar-22 14:32N 41°04' W 073°15'0 0.0
2015-Mar-22 13:32N 41°04' W 073°15'0 0.1
2015-Mar-22 12:32N 41°04' W 073°15'0 0.1
2015-Mar-22 11:32N 41°04' W 073°15'0 0.0
2015-Mar-22 10:32N 41°04' W 073°14'0 0.0
2015-Mar-22 09:32N 41°04' W 073°14'0 0.0
2015-Mar-22 08:32N 41°04' W 073°14'0 0.0
2015-Mar-22 07:32N 41°04' W 073°14'0 0.0
2015-Mar-22 06:32N 41°04' W 073°14'0 0.0
2015-Mar-22 05:32N 41°04' W 073°14'0 0.0
2015-Mar-22 04:32N 41°04' W 073°14'0 0.1
2015-Mar-22 03:32N 41°04' W 073°14'0 0.1
2015-Mar-22 02:29N 41°04' W 073°15'0 0.1
2015-Mar-22 01:32N 41°04' W 073°15'0 0.0
2015-Mar-22 00:32N 41°04' W 073°15'0 0.0
2015-Mar-21 23:32N 41°04' W 073°15'0 0.0
2015-Mar-21 22:32N 41°04' W 073°14'0 0.0
2015-Mar-21 21:32N 41°04' W 073°14'0 0.0
2015-Mar-21 20:32N 41°04' W 073°14'0 0.0
2015-Mar-21 19:32N 41°04' W 073°15'0 0.0
2015-Mar-21 18:32N 41°04' W 073°15'0 0.1
2015-Mar-21 17:32N 41°04' W 073°15'0 0.1
2015-Mar-21 16:32N 41°04' W 073°15'0 0.0
2015-Mar-21 15:32N 41°04' W 073°15'0 0.1
2015-Mar-21 14:29N 41°04' W 073°15'0 0.0
2015-Mar-21 13:32N 41°04' W 073°15'0 0.0
2015-Mar-21 12:32N 41°04' W 073°15'0 0.1
2015-Mar-21 11:32N 41°04' W 073°15'0 0.1
2015-Mar-21 10:32N 41°04' W 073°15'0 0.0
2015-Mar-21 09:32N 41°04' W 073°15'0 0.0
2015-Mar-21 08:32N 41°04' W 073°15'0 0.0
2015-Mar-21 07:32N 41°04' W 073°15'0 0.1
2015-Mar-21 06:32N 41°04' W 073°15'0 0.1
2015-Mar-21 05:32N 41°04' W 073°15'0 0.0
2015-Mar-21 04:32N 41°04' W 073°15'0 0.0
2015-Mar-21 03:32N 41°04' W 073°15'0 0.0
2015-Mar-21 02:32N 41°04' W 073°15'0 0.0
2015-Mar-21 01:32N 41°04' W 073°15'0 0.0
2015-Mar-21 00:32N 41°04' W 073°15'0 0.0
2015-Mar-20 23:32N 41°04' W 073°15'0 0.0
2015-Mar-20 22:32N 41°04' W 073°15'0 0.0
2015-Mar-20 21:32N 41°04' W 073°15'0 0.1
2015-Mar-20 20:32N 41°04' W 073°15'0 0.1
2015-Mar-20 19:32N 41°04' W 073°15'0 0.0
2015-Mar-20 18:32N 41°04' W 073°15'0 0.1
2015-Mar-20 17:32N 41°04' W 073°15'0 0.0
2015-Mar-20 16:32N 41°04' W 073°15'0 0.0
2015-Mar-20 15:32N 41°04' W 073°15'0 0.0
2015-Mar-20 14:32N 41°04' W 073°15'0 0.0
2015-Mar-20 13:32N 41°04' W 073°15'0 0.0
2015-Mar-20 12:29N 41°04' W 073°15'0 0.0
2015-Mar-20 11:32N 41°04' W 073°15'0 0.1
2015-Mar-20 10:32N 41°04' W 073°15'0 0.1
2015-Mar-20 09:32N 41°04' W 073°15'0 0.0
2015-Mar-20 08:32N 41°04' W 073°15'0 0.0
2015-Mar-20 07:32N 41°04' W 073°15'0 0.0
2015-Mar-20 06:32N 41°04' W 073°15'0 0.0
2015-Mar-20 05:32N 41°04' W 073°15'0 0.1
2015-Mar-20 04:32N 41°04' W 073°15'0 0.1
2015-Mar-20 03:32N 41°04' W 073°15'0 0.1
2015-Mar-20 02:32N 41°04' W 073°15'0 0.0
2015-Mar-20 01:32N 41°04' W 073°15'0 0.0
2015-Mar-20 00:32N 41°04' W 073°15'0 0.0
2015-Mar-19 23:32N 41°04' W 073°15'0 0.1
2015-Mar-19 22:32N 41°04' W 073°15'0 0.1
2015-Mar-19 21:32N 41°04' W 073°15'0 0.0
2015-Mar-19 20:29N 41°04' W 073°14'0 0.0
2015-Mar-19 19:26N 41°04' W 073°14'0 0.0
2015-Mar-19 18:32N 41°04' W 073°14'0 0.0
2015-Mar-19 17:29N 41°04' W 073°14'0 0.0
2015-Mar-19 16:23N 41°04' W 073°15'0 0.0
2015-Mar-19 15:32N 41°04' W 073°15'0 0.1
2015-Mar-19 14:32N 41°04' W 073°15'0 0.1
2015-Mar-19 13:32N 41°04' W 073°15'0 0.0
2015-Mar-19 12:32N 41°04' W 073°15'0 0.0
2015-Mar-19 11:32N 41°04' W 073°15'0 0.0
2015-Mar-19 10:32N 41°04' W 073°15'0 0.2
2015-Mar-19 09:32N 41°04' W 073°15'0 0.1
2015-Mar-19 08:32N 41°04' W 073°15'0 0.0
2015-Mar-19 07:32N 41°04' W 073°15'0 0.0
2015-Mar-19 06:32N 41°04' W 073°15'0 0.0
2015-Mar-19 05:32N 41°04' W 073°15'0 0.0
2015-Mar-19 04:32N 41°04' W 073°15'0 0.0
2015-Mar-19 03:32N 41°04' W 073°14'0 0.0
2015-Mar-19 02:29N 41°04' W 073°15'0 0.0
2015-Mar-19 01:32N 41°04' W 073°15'0 0.0
2015-Mar-19 00:32N 41°04' W 073°15'0 0.0
2015-Mar-18 23:32N 41°04' W 073°15'0 0.1
2015-Mar-18 22:33N 41°04' W 073°15'1 0.9
2015-Mar-18 21:32N 41°03' W 073°14'0 0.2
2015-Mar-18 20:19N 41°04' W 073°14'0 0.0
2015-Mar-18 19:31N 41°04' W 073°14'0 0.0
2015-Mar-18 18:28N 41°04' W 073°14'0 0.0
2015-Mar-18 17:31N 41°04' W 073°14'0 0.0
2015-Mar-18 16:28N 41°04' W 073°14'0 0.1
2015-Mar-18 15:19N 41°04' W 073°14'0 0.0
2015-Mar-18 14:28N 41°04' W 073°14'0 0.0
2015-Mar-18 13:31N 41°04' W 073°14'0 0.0
2015-Mar-18 12:31N 41°04' W 073°14'0 0.0
2015-Mar-18 11:31N 41°04' W 073°14'0 0.0
2015-Mar-18 10:31N 41°04' W 073°14'0 0.0
2015-Mar-18 09:28N 41°04' W 073°14'0 0.0
2015-Mar-18 08:28N 41°04' W 073°14'0 0.1
2015-Mar-18 07:25N 41°04' W 073°14'0 0.0
2015-Mar-18 06:28N 41°04' W 073°14'0 0.0
2015-Mar-18 05:22N 41°04' W 073°14'0 0.0
2015-Mar-18 04:31N 41°04' W 073°14'0 0.0
2015-Mar-18 03:31N 41°04' W 073°14'0 0.1
2015-Mar-18 02:28N 41°04' W 073°14'0 0.0
2015-Mar-18 01:31N 41°04' W 073°14'0 0.0
2015-Mar-18 00:31N 41°04' W 073°14'0 0.0
2015-Mar-17 23:25N 41°04' W 073°14'0 0.0
2015-Mar-17 22:31N 41°04' W 073°14'1 1.2
2015-Mar-17 21:28N 41°03' W 073°13'0 0.5
2015-Mar-17 20:31N 41°03' W 073°13'0 0.0
2015-Mar-17 19:31N 41°03' W 073°13'0 0.0
2015-Mar-17 18:31N 41°03' W 073°13'0 0.0
2015-Mar-17 17:28N 41°03' W 073°13'0 0.0
2015-Mar-17 16:31N 41°03' W 073°13'0 0.0
2015-Mar-17 15:31N 41°03' W 073°13'0 0.2
2015-Mar-17 14:31N 41°03' W 073°13'0 0.0
2015-Mar-17 13:31N 41°03' W 073°13'0 0.1
2015-Mar-17 12:31N 41°03' W 073°13'0 0.0
2015-Mar-17 11:31N 41°03' W 073°13'0 0.0
2015-Mar-17 10:31N 41°03' W 073°13'0 0.0
2015-Mar-17 09:31N 41°03' W 073°13'0 0.1
2015-Mar-17 08:31N 41°03' W 073°13'0 0.2
2015-Mar-17 07:31N 41°03' W 073°13'0 0.1
2015-Mar-17 06:31N 41°03' W 073°13'0 0.0
2015-Mar-17 05:28N 41°03' W 073°13'0 0.0
2015-Mar-17 04:31N 41°03' W 073°13'  

Dump ship's entire track history